sensor_id;sensor_type;location;lat;lon;timestamp;P1;durP1;ratioP1;P2;durP2;ratioP2
47896;SDS011;39629;51.400;5.494;2023-04-03T00:02:50;4.18;;;2.50;;
47896;SDS011;39629;51.400;5.494;2023-04-03T00:07:53;5.18;;;2.45;;
47896;SDS011;39629;51.400;5.494;2023-04-03T00:12:55;3.92;;;2.28;;
47896;SDS011;39629;51.400;5.494;2023-04-03T00:17:56;3.65;;;2.05;;
47896;SDS011;39629;51.400;5.494;2023-04-03T00:23:00;4.63;;;2.42;;
47896;SDS011;39629;51.400;5.494;2023-04-03T00:28:02;3.67;;;1.85;;
47896;SDS011;39629;51.400;5.494;2023-04-03T00:33:04;5.07;;;2.70;;
47896;SDS011;39629;51.400;5.494;2023-04-03T00:38:07;4.30;;;2.55;;
47896;SDS011;39629;51.400;5.494;2023-04-03T00:43:11;4.00;;;2.55;;
47896;SDS011;39629;51.400;5.494;2023-04-03T00:48:15;5.03;;;2.67;;
47896;SDS011;39629;51.400;5.494;2023-04-03T00:53:21;4.00;;;2.30;;
47896;SDS011;39629;51.400;5.494;2023-04-03T00:58:28;5.00;;;2.60;;
47896;SDS011;39629;51.400;5.494;2023-04-03T01:03:34;3.65;;;2.28;;
47896;SDS011;39629;51.400;5.494;2023-04-03T01:08:40;6.05;;;2.47;;
47896;SDS011;39629;51.400;5.494;2023-04-03T01:13:42;4.03;;;2.25;;
47896;SDS011;39629;51.400;5.494;2023-04-03T01:18:44;6.18;;;2.42;;
47896;SDS011;39629;51.400;5.494;2023-04-03T01:23:51;4.60;;;2.90;;
47896;SDS011;39629;51.400;5.494;2023-04-03T01:28:59;7.65;;;2.58;;
47896;SDS011;39629;51.400;5.494;2023-04-03T01:34:02;3.88;;;2.40;;
47896;SDS011;39629;51.400;5.494;2023-04-03T01:39:06;5.32;;;2.95;;
47896;SDS011;39629;51.400;5.494;2023-04-03T01:44:08;4.28;;;2.60;;
47896;SDS011;39629;51.400;5.494;2023-04-03T01:49:11;6.28;;;2.90;;
47896;SDS011;39629;51.400;5.494;2023-04-03T01:54:13;5.90;;;2.75;;
47896;SDS011;39629;51.400;5.494;2023-04-03T01:59:15;5.85;;;2.60;;
47896;SDS011;39629;51.400;5.494;2023-04-03T02:04:19;4.47;;;2.80;;
47896;SDS011;39629;51.400;5.494;2023-04-03T02:09:21;5.43;;;2.88;;
47896;SDS011;39629;51.400;5.494;2023-04-03T02:14:23;5.10;;;3.30;;
47896;SDS011;39629;51.400;5.494;2023-04-03T02:19:26;8.55;;;3.70;;
47896;SDS011;39629;51.400;5.494;2023-04-03T02:24:28;9.63;;;3.47;;
47896;SDS011;39629;51.400;5.494;2023-04-03T02:29:29;6.63;;;3.35;;
47896;SDS011;39629;51.400;5.494;2023-04-03T02:34:32;8.00;;;3.70;;
47896;SDS011;39629;51.400;5.494;2023-04-03T02:39:36;5.47;;;3.30;;
47896;SDS011;39629;51.400;5.494;2023-04-03T02:44:38;7.78;;;3.33;;
47896;SDS011;39629;51.400;5.494;2023-04-03T02:49:41;6.40;;;3.80;;
47896;SDS011;39629;51.400;5.494;2023-04-03T02:54:45;11.38;;;4.00;;
47896;SDS011;39629;51.400;5.494;2023-04-03T02:59:46;10.60;;;4.03;;
47896;SDS011;39629;51.400;5.494;2023-04-03T03:04:49;9.93;;;4.07;;
47896;SDS011;39629;51.400;5.494;2023-04-03T03:09:51;7.97;;;3.85;;
47896;SDS011;39629;51.400;5.494;2023-04-03T03:14:52;7.25;;;4.15;;
47896;SDS011;39629;51.400;5.494;2023-04-03T03:19:55;6.95;;;3.47;;
47896;SDS011;39629;51.400;5.494;2023-04-03T03:24:57;8.27;;;4.10;;
47896;SDS011;39629;51.400;5.494;2023-04-03T03:29:59;6.90;;;4.10;;
47896;SDS011;39629;51.400;5.494;2023-04-03T03:35:02;10.45;;;4.25;;
47896;SDS011;39629;51.400;5.494;2023-04-03T03:40:04;7.75;;;3.28;;
47896;SDS011;39629;51.400;5.494;2023-04-03T03:45:07;8.80;;;3.45;;
47896;SDS011;39629;51.400;5.494;2023-04-03T03:50:11;6.15;;;3.67;;
47896;SDS011;39629;51.400;5.494;2023-04-03T03:55:13;6.95;;;3.58;;
47896;SDS011;39629;51.400;5.494;2023-04-03T04:00:15;6.82;;;3.42;;
47896;SDS011;39629;51.400;5.494;2023-04-03T04:05:23;7.38;;;3.10;;
47896;SDS011;39629;51.400;5.494;2023-04-03T04:15:30;5.20;;;2.95;;
47896;SDS011;39629;51.400;5.494;2023-04-03T04:20:34;6.68;;;3.08;;
47896;SDS011;39629;51.400;5.494;2023-04-03T04:25:36;7.88;;;3.13;;
47896;SDS011;39629;51.400;5.494;2023-04-03T04:30:39;7.53;;;3.30;;
47896;SDS011;39629;51.400;5.494;2023-04-03T04:35:42;7.40;;;3.40;;
47896;SDS011;39629;51.400;5.494;2023-04-03T04:40:44;6.03;;;3.23;;
47896;SDS011;39629;51.400;5.494;2023-04-03T04:45:46;6.53;;;2.72;;
47896;SDS011;39629;51.400;5.494;2023-04-03T04:50:52;5.90;;;2.72;;
47896;SDS011;39629;51.400;5.494;2023-04-03T04:55:54;5.72;;;2.75;;
47896;SDS011;39629;51.400;5.494;2023-04-03T05:00:59;5.30;;;2.53;;
47896;SDS011;39629;51.400;5.494;2023-04-03T05:06:03;6.07;;;2.80;;
47896;SDS011;39629;51.400;5.494;2023-04-03T05:11:06;7.97;;;2.60;;
47896;SDS011;39629;51.400;5.494;2023-04-03T05:16:10;6.90;;;2.20;;
47896;SDS011;39629;51.400;5.494;2023-04-03T05:21:14;5.93;;;2.03;;
47896;SDS011;39629;51.400;5.494;2023-04-03T05:26:16;5.63;;;2.50;;
47896;SDS011;39629;51.400;5.494;2023-04-03T05:31:20;5.13;;;2.30;;
47896;SDS011;39629;51.400;5.494;2023-04-03T05:36:24;4.43;;;2.33;;
47896;SDS011;39629;51.400;5.494;2023-04-03T05:41:30;3.88;;;2.17;;
47896;SDS011;39629;51.400;5.494;2023-04-03T05:46:31;5.97;;;2.50;;
47896;SDS011;39629;51.400;5.494;2023-04-03T05:51:38;4.05;;;1.98;;
47896;SDS011;39629;51.400;5.494;2023-04-03T05:56:48;9.38;;;2.28;;
47896;SDS011;39629;51.400;5.494;2023-04-03T06:01:50;7.03;;;2.30;;
47896;SDS011;39629;51.400;5.494;2023-04-03T06:06:54;10.57;;;2.15;;
47896;SDS011;39629;51.400;5.494;2023-04-03T06:11:57;5.90;;;1.92;;
47896;SDS011;39629;51.400;5.494;2023-04-03T06:16:59;3.50;;;1.50;;
47896;SDS011;39629;51.400;5.494;2023-04-03T06:22:03;6.38;;;1.73;;
47896;SDS011;39629;51.400;5.494;2023-04-03T06:27:04;5.00;;;1.83;;
47896;SDS011;39629;51.400;5.494;2023-04-03T06:32:06;6.07;;;1.92;;
47896;SDS011;39629;51.400;5.494;2023-04-03T06:37:11;4.90;;;1.15;;
47896;SDS011;39629;51.400;5.494;2023-04-03T06:42:16;3.38;;;1.90;;
47896;SDS011;39629;51.400;5.494;2023-04-03T06:47:28;6.72;;;1.55;;
47896;SDS011;39629;51.400;5.494;2023-04-03T06:52:31;6.47;;;2.00;;
47896;SDS011;39629;51.400;5.494;2023-04-03T06:57:33;7.18;;;1.95;;
47896;SDS011;39629;51.400;5.494;2023-04-03T07:02:34;3.95;;;1.40;;
47896;SDS011;39629;51.400;5.494;2023-04-03T07:07:37;3.67;;;1.60;;
47896;SDS011;39629;51.400;5.494;2023-04-03T07:12:39;2.50;;;1.52;;
47896;SDS011;39629;51.400;5.494;2023-04-03T07:17:40;4.57;;;1.45;;
47896;SDS011;39629;51.400;5.494;2023-04-03T07:22:43;2.83;;;1.52;;
47896;SDS011;39629;51.400;5.494;2023-04-03T07:27:45;4.57;;;1.67;;
47896;SDS011;39629;51.400;5.494;2023-04-03T07:32:47;5.03;;;1.60;;
47896;SDS011;39629;51.400;5.494;2023-04-03T07:37:50;4.32;;;1.30;;
47896;SDS011;39629;51.400;5.494;2023-04-03T07:42:53;6.50;;;1.70;;
47896;SDS011;39629;51.400;5.494;2023-04-03T07:47:56;4.88;;;1.40;;
47896;SDS011;39629;51.400;5.494;2023-04-03T07:52:59;2.83;;;1.40;;
47896;SDS011;39629;51.400;5.494;2023-04-03T07:58:01;3.42;;;1.30;;
47896;SDS011;39629;51.400;5.494;2023-04-03T08:03:03;5.00;;;1.40;;
47896;SDS011;39629;51.400;5.494;2023-04-03T08:08:07;6.63;;;1.50;;
47896;SDS011;39629;51.400;5.494;2023-04-03T08:13:10;4.70;;;1.10;;
47896;SDS011;39629;51.400;5.494;2023-04-03T08:18:12;3.47;;;1.10;;
47896;SDS011;39629;51.400;5.494;2023-04-03T08:23:16;1.98;;;0.90;;
47896;SDS011;39629;51.400;5.494;2023-04-03T08:28:17;2.63;;;0.88;;
47896;SDS011;39629;51.400;5.494;2023-04-03T08:33:19;3.45;;;1.00;;
47896;SDS011;39629;51.400;5.494;2023-04-03T08:38:22;3.85;;;1.08;;
47896;SDS011;39629;51.400;5.494;2023-04-03T08:43:27;1.80;;;0.98;;
47896;SDS011;39629;51.400;5.494;2023-04-03T08:48:38;2.30;;;0.90;;
47896;SDS011;39629;51.400;5.494;2023-04-03T08:53:45;3.05;;;1.00;;
47896;SDS011;39629;51.400;5.494;2023-04-03T08:58:54;2.88;;;1.00;;
47896;SDS011;39629;51.400;5.494;2023-04-03T09:03:57;2.58;;;0.80;;
47896;SDS011;39629;51.400;5.494;2023-04-03T09:09:06;4.18;;;1.00;;
47896;SDS011;39629;51.400;5.494;2023-04-03T09:14:15;2.22;;;0.85;;
47896;SDS011;39629;51.400;5.494;2023-04-03T09:19:30;2.35;;;0.55;;
47896;SDS011;39629;51.400;5.494;2023-04-03T09:24:41;0.95;;;0.50;;
47896;SDS011;39629;51.400;5.494;2023-04-03T09:29:44;2.10;;;0.60;;
47896;SDS011;39629;51.400;5.494;2023-04-03T09:34:46;1.38;;;0.40;;
47896;SDS011;39629;51.400;5.494;2023-04-03T09:39:52;1.52;;;0.63;;
47896;SDS011;39629;51.400;5.494;2023-04-03T09:44:56;0.90;;;0.45;;
47896;SDS011;39629;51.400;5.494;2023-04-03T09:50:09;1.43;;;0.53;;
47896;SDS011;39629;51.400;5.494;2023-04-03T09:55:25;1.10;;;0.40;;
47896;SDS011;39629;51.400;5.494;2023-04-03T10:00:30;1.48;;;0.50;;
47896;SDS011;39629;51.400;5.494;2023-04-03T10:05:36;0.70;;;0.38;;
47896;SDS011;39629;51.400;5.494;2023-04-03T10:10:40;1.92;;;0.50;;
47896;SDS011;39629;51.400;5.494;2023-04-03T10:15:44;4.65;;;0.60;;
47896;SDS011;39629;51.400;5.494;2023-04-03T10:25:55;0.90;;;0.40;;
47896;SDS011;39629;51.400;5.494;2023-04-03T10:31:05;1.30;;;0.47;;
47896;SDS011;39629;51.400;5.494;2023-04-03T10:36:17;1.13;;;0.43;;
47896;SDS011;39629;51.400;5.494;2023-04-03T10:41:29;2.25;;;0.60;;
47896;SDS011;39629;51.400;5.494;2023-04-03T10:46:41;1.93;;;0.50;;
47896;SDS011;39629;51.400;5.494;2023-04-03T10:51:50;1.52;;;0.60;;
47896;SDS011;39629;51.400;5.494;2023-04-03T10:57:05;2.05;;;0.47;;
47896;SDS011;39629;51.400;5.494;2023-04-03T11:02:11;1.10;;;0.40;;
47896;SDS011;39629;51.400;5.494;2023-04-03T11:07:19;2.75;;;0.60;;
47896;SDS011;39629;51.400;5.494;2023-04-03T11:12:26;1.65;;;0.55;;
47896;SDS011;39629;51.400;5.494;2023-04-03T11:17:33;1.52;;;0.50;;
47896;SDS011;39629;51.400;5.494;2023-04-03T11:22:41;1.55;;;0.60;;
47896;SDS011;39629;51.400;5.494;2023-04-03T11:27:48;2.28;;;0.50;;
47896;SDS011;39629;51.400;5.494;2023-04-03T11:32:59;1.27;;;0.50;;
47896;SDS011;39629;51.400;5.494;2023-04-03T11:38:17;0.90;;;0.40;;
47896;SDS011;39629;51.400;5.494;2023-04-03T11:43:27;5.28;;;0.50;;
47896;SDS011;39629;51.400;5.494;2023-04-03T11:53:53;2.50;;;0.52;;
47896;SDS011;39629;51.400;5.494;2023-04-03T12:04:27;1.40;;;0.47;;
47896;SDS011;39629;51.400;5.494;2023-04-03T12:09:34;1.23;;;0.52;;
47896;SDS011;39629;51.400;5.494;2023-04-03T12:25:48;1.88;;;0.55;;
47896;SDS011;39629;51.400;5.494;2023-04-03T12:30:53;1.15;;;0.47;;
47896;SDS011;39629;51.400;5.494;2023-04-03T12:41:16;2.03;;;0.60;;
47896;SDS011;39629;51.400;5.494;2023-04-03T12:46:23;2.38;;;0.68;;
47896;SDS011;39629;51.400;5.494;2023-04-03T12:51:26;1.42;;;0.52;;
47896;SDS011;39629;51.400;5.494;2023-04-03T12:56:35;2.15;;;0.45;;
47896;SDS011;39629;51.400;5.494;2023-04-03T13:01:38;1.23;;;0.52;;
47896;SDS011;39629;51.400;5.494;2023-04-03T13:06:40;2.80;;;0.60;;
47896;SDS011;39629;51.400;5.494;2023-04-03T13:11:43;1.75;;;0.50;;
47896;SDS011;39629;51.400;5.494;2023-04-03T13:16:54;2.15;;;1.05;;
47896;SDS011;39629;51.400;5.494;2023-04-03T13:21:58;1.55;;;0.70;;
47896;SDS011;39629;51.400;5.494;2023-04-03T13:27:02;1.88;;;0.60;;
47896;SDS011;39629;51.400;5.494;2023-04-03T13:32:06;2.30;;;0.70;;
47896;SDS011;39629;51.400;5.494;2023-04-03T13:37:21;1.75;;;0.50;;
47896;SDS011;39629;51.400;5.494;2023-04-03T13:42:25;1.30;;;0.75;;
47896;SDS011;39629;51.400;5.494;2023-04-03T13:47:37;1.52;;;0.60;;
47896;SDS011;39629;51.400;5.494;2023-04-03T13:52:41;2.45;;;0.73;;
47896;SDS011;39629;51.400;5.494;2023-04-03T13:57:49;2.28;;;0.95;;
47896;SDS011;39629;51.400;5.494;2023-04-03T14:02:53;2.05;;;0.60;;
47896;SDS011;39629;51.400;5.494;2023-04-03T14:07:56;2.05;;;1.00;;
47896;SDS011;39629;51.400;5.494;2023-04-03T14:12:59;1.67;;;0.60;;
47896;SDS011;39629;51.400;5.494;2023-04-03T14:18:02;2.65;;;0.80;;
47896;SDS011;39629;51.400;5.494;2023-04-03T14:23:03;3.33;;;0.90;;
47896;SDS011;39629;51.400;5.494;2023-04-03T14:28:11;1.75;;;0.65;;
47896;SDS011;39629;51.400;5.494;2023-04-03T14:33:18;1.70;;;0.93;;
47896;SDS011;39629;51.400;5.494;2023-04-03T14:38:23;1.52;;;0.73;;
47896;SDS011;39629;51.400;5.494;2023-04-03T14:43:26;4.43;;;0.88;;
47896;SDS011;39629;51.400;5.494;2023-04-03T14:48:29;2.47;;;0.80;;
47896;SDS011;39629;51.400;5.494;2023-04-03T14:53:31;1.88;;;0.90;;
47896;SDS011;39629;51.400;5.494;2023-04-03T14:58:33;3.55;;;0.80;;
47896;SDS011;39629;51.400;5.494;2023-04-03T15:03:39;3.40;;;1.05;;
47896;SDS011;39629;51.400;5.494;2023-04-03T15:08:41;1.65;;;0.70;;
47896;SDS011;39629;51.400;5.494;2023-04-03T15:13:43;2.58;;;0.80;;
47896;SDS011;39629;51.400;5.494;2023-04-03T15:18:48;3.67;;;0.80;;
47896;SDS011;39629;51.400;5.494;2023-04-03T15:23:50;2.70;;;1.05;;
47896;SDS011;39629;51.400;5.494;2023-04-03T15:28:51;3.60;;;1.00;;
47896;SDS011;39629;51.400;5.494;2023-04-03T15:33:54;1.77;;;0.90;;
47896;SDS011;39629;51.400;5.494;2023-04-03T15:38:56;2.03;;;0.50;;
47896;SDS011;39629;51.400;5.494;2023-04-03T15:43:57;2.08;;;0.60;;
47896;SDS011;39629;51.400;5.494;2023-04-03T15:49:00;2.53;;;0.77;;
47896;SDS011;39629;51.400;5.494;2023-04-03T15:54:02;2.35;;;1.00;;
47896;SDS011;39629;51.400;5.494;2023-04-03T15:59:05;1.67;;;0.73;;
47896;SDS011;39629;51.400;5.494;2023-04-03T16:04:08;1.55;;;0.80;;
47896;SDS011;39629;51.400;5.494;2023-04-03T16:09:10;2.13;;;0.70;;
47896;SDS011;39629;51.400;5.494;2023-04-03T16:14:12;2.00;;;0.85;;
47896;SDS011;39629;51.400;5.494;2023-04-03T16:19:15;2.30;;;0.82;;
47896;SDS011;39629;51.400;5.494;2023-04-03T16:24:17;1.63;;;0.70;;
47896;SDS011;39629;51.400;5.494;2023-04-03T16:29:18;2.40;;;0.90;;
47896;SDS011;39629;51.400;5.494;2023-04-03T16:34:21;2.28;;;0.88;;
47896;SDS011;39629;51.400;5.494;2023-04-03T16:39:25;2.03;;;0.70;;
47896;SDS011;39629;51.400;5.494;2023-04-03T16:44:27;2.13;;;0.90;;
47896;SDS011;39629;51.400;5.494;2023-04-03T16:49:30;1.20;;;0.50;;
47896;SDS011;39629;51.400;5.494;2023-04-03T16:54:33;3.22;;;0.80;;
47896;SDS011;39629;51.400;5.494;2023-04-03T16:59:35;2.80;;;0.60;;
47896;SDS011;39629;51.400;5.494;2023-04-03T17:04:38;1.85;;;0.70;;
47896;SDS011;39629;51.400;5.494;2023-04-03T17:09:40;2.75;;;0.70;;
47896;SDS011;39629;51.400;5.494;2023-04-03T17:14:41;2.83;;;0.82;;
47896;SDS011;39629;51.400;5.494;2023-04-03T17:19:44;2.75;;;0.82;;
47896;SDS011;39629;51.400;5.494;2023-04-03T17:24:46;2.45;;;1.00;;
47896;SDS011;39629;51.400;5.494;2023-04-03T17:29:47;2.10;;;0.75;;
47896;SDS011;39629;51.400;5.494;2023-04-03T17:34:50;1.30;;;0.60;;
47896;SDS011;39629;51.400;5.494;2023-04-03T17:39:52;1.77;;;0.90;;
47896;SDS011;39629;51.400;5.494;2023-04-03T17:44:53;1.80;;;0.90;;
47896;SDS011;39629;51.400;5.494;2023-04-03T17:49:56;2.40;;;0.80;;
47896;SDS011;39629;51.400;5.494;2023-04-03T17:54:58;3.03;;;0.90;;
47896;SDS011;39629;51.400;5.494;2023-04-03T18:00:00;2.05;;;0.80;;
47896;SDS011;39629;51.400;5.494;2023-04-03T18:05:03;2.50;;;0.82;;
47896;SDS011;39629;51.400;5.494;2023-04-03T18:10:05;3.63;;;1.08;;
47896;SDS011;39629;51.400;5.494;2023-04-03T18:15:09;2.70;;;0.80;;
47896;SDS011;39629;51.400;5.494;2023-04-03T18:20:13;4.03;;;1.05;;
47896;SDS011;39629;51.400;5.494;2023-04-03T18:25:16;3.75;;;1.35;;
47896;SDS011;39629;51.400;5.494;2023-04-03T18:30:17;2.63;;;0.93;;
47896;SDS011;39629;51.400;5.494;2023-04-03T18:35:20;2.67;;;1.10;;
47896;SDS011;39629;51.400;5.494;2023-04-03T18:40:22;3.67;;;1.00;;
47896;SDS011;39629;51.400;5.494;2023-04-03T18:45:23;3.00;;;0.95;;
47896;SDS011;39629;51.400;5.494;2023-04-03T18:50:27;4.43;;;1.20;;
47896;SDS011;39629;51.400;5.494;2023-04-03T18:55:29;4.82;;;1.00;;
47896;SDS011;39629;51.400;5.494;2023-04-03T19:00:31;2.22;;;1.00;;
47896;SDS011;39629;51.400;5.494;2023-04-03T19:05:34;3.65;;;1.13;;
47896;SDS011;39629;51.400;5.494;2023-04-03T19:10:36;4.97;;;1.23;;
47896;SDS011;39629;51.400;5.494;2023-04-03T19:15:38;4.43;;;1.00;;
47896;SDS011;39629;51.400;5.494;2023-04-03T19:20:41;3.08;;;1.10;;
47896;SDS011;39629;51.400;5.494;2023-04-03T19:25:42;3.55;;;1.02;;
47896;SDS011;39629;51.400;5.494;2023-04-03T19:30:44;4.65;;;1.88;;
47896;SDS011;39629;51.400;5.494;2023-04-03T19:35:48;4.10;;;1.13;;
47896;SDS011;39629;51.400;5.494;2023-04-03T19:40:50;2.53;;;1.15;;
47896;SDS011;39629;51.400;5.494;2023-04-03T19:45:52;3.15;;;1.20;;
47896;SDS011;39629;51.400;5.494;2023-04-03T19:50:55;2.63;;;1.10;;
47896;SDS011;39629;51.400;5.494;2023-04-03T19:55:57;3.92;;;1.52;;
47896;SDS011;39629;51.400;5.494;2023-04-03T20:00:59;2.95;;;1.13;;
47896;SDS011;39629;51.400;5.494;2023-04-03T20:06:02;3.47;;;1.15;;
47896;SDS011;39629;51.400;5.494;2023-04-03T20:11:04;3.08;;;1.20;;
47896;SDS011;39629;51.400;5.494;2023-04-03T20:16:06;3.13;;;1.20;;
47896;SDS011;39629;51.400;5.494;2023-04-03T20:21:10;2.30;;;1.00;;
47896;SDS011;39629;51.400;5.494;2023-04-03T20:26:18;3.53;;;1.02;;
47896;SDS011;39629;51.400;5.494;2023-04-03T20:31:22;3.00;;;1.05;;
47896;SDS011;39629;51.400;5.494;2023-04-03T20:36:27;4.68;;;1.23;;
47896;SDS011;39629;51.400;5.494;2023-04-03T20:41:30;4.78;;;1.40;;
47896;SDS011;39629;51.400;5.494;2023-04-03T20:46:34;4.35;;;1.55;;
47896;SDS011;39629;51.400;5.494;2023-04-03T20:51:37;4.65;;;1.60;;
47896;SDS011;39629;51.400;5.494;2023-04-03T20:56:39;4.13;;;1.30;;
47896;SDS011;39629;51.400;5.494;2023-04-03T21:01:41;2.70;;;1.20;;
47896;SDS011;39629;51.400;5.494;2023-04-03T21:23:36;3.13;;;1.10;;
47896;SDS011;39629;51.400;5.494;2023-04-03T21:28:38;4.43;;;1.30;;
47896;SDS011;39629;51.400;5.494;2023-04-03T21:33:42;3.35;;;1.20;;
47896;SDS011;39629;51.400;5.494;2023-04-03T21:38:44;3.65;;;1.30;;
47896;SDS011;39629;51.400;5.494;2023-04-03T21:43:45;2.80;;;1.20;;
47896;SDS011;39629;51.400;5.494;2023-04-03T21:48:48;2.83;;;1.02;;
47896;SDS011;39629;51.400;5.494;2023-04-03T21:53:50;5.20;;;1.10;;
47896;SDS011;39629;51.400;5.494;2023-04-03T21:58:52;2.65;;;1.25;;
47896;SDS011;39629;51.400;5.494;2023-04-03T22:03:56;2.47;;;1.15;;
47896;SDS011;39629;51.400;5.494;2023-04-03T22:08:59;3.40;;;1.20;;
47896;SDS011;39629;51.400;5.494;2023-04-03T22:14:01;3.60;;;1.27;;
47896;SDS011;39629;51.400;5.494;2023-04-03T22:19:04;3.08;;;1.10;;
47896;SDS011;39629;51.400;5.494;2023-04-03T22:24:06;4.60;;;1.20;;
47896;SDS011;39629;51.400;5.494;2023-04-03T22:29:08;4.38;;;1.30;;
47896;SDS011;39629;51.400;5.494;2023-04-03T22:34:12;4.22;;;1.20;;
47896;SDS011;39629;51.400;5.494;2023-04-03T22:39:14;4.27;;;1.20;;
47896;SDS011;39629;51.400;5.494;2023-04-03T22:44:17;5.13;;;1.60;;
47896;SDS011;39629;51.400;5.494;2023-04-03T22:49:20;4.97;;;1.30;;
47896;SDS011;39629;51.400;5.494;2023-04-03T22:54:23;4.07;;;1.30;;
47896;SDS011;39629;51.400;5.494;2023-04-03T22:59:24;3.40;;;1.40;;
47896;SDS011;39629;51.400;5.494;2023-04-03T23:04:27;4.20;;;1.50;;
47896;SDS011;39629;51.400;5.494;2023-04-03T23:09:29;8.02;;;1.73;;
47896;SDS011;39629;51.400;5.494;2023-04-03T23:14:30;4.30;;;1.17;;
47896;SDS011;39629;51.400;5.494;2023-04-03T23:19:33;5.82;;;1.42;;
47896;SDS011;39629;51.400;5.494;2023-04-03T23:24:36;3.72;;;1.30;;
47896;SDS011;39629;51.400;5.494;2023-04-03T23:29:37;4.85;;;1.80;;
47896;SDS011;39629;51.400;5.494;2023-04-03T23:34:42;5.03;;;1.52;;
47896;SDS011;39629;51.400;5.494;2023-04-03T23:39:44;4.93;;;1.70;;
47896;SDS011;39629;51.400;5.494;2023-04-03T23:44:45;4.47;;;1.30;;
47896;SDS011;39629;51.400;5.494;2023-04-03T23:49:48;4.18;;;1.58;;
47896;SDS011;39629;51.400;5.494;2023-04-03T23:54:50;2.30;;;1.23;;
47896;SDS011;39629;51.400;5.494;2023-04-03T23:59:51;3.00;;;1.42;;
